createdAt,value
2022-11-26T00:04:11.127Z,6.75
2022-11-26T00:14:15.236Z,6.65
2022-11-26T00:24:27.758Z,6.56
2022-11-26T00:34:30.401Z,6.48
2022-11-26T00:44:34.626Z,6.39
2022-11-26T00:54:37.492Z,6.36
2022-11-26T01:04:41.662Z,6.38
2022-11-26T01:14:44.306Z,6.31
2022-11-26T01:24:48.592Z,6.36
2022-11-26T01:34:51.267Z,6.27
2022-11-26T01:44:55.265Z,6.25
2022-11-26T01:54:57.929Z,6.13
2022-11-26T02:05:06.608Z,6.10
2022-11-26T02:15:12.652Z,6.00
2022-11-26T02:25:20.742Z,5.97
2022-11-26T02:35:28.646Z,5.94
2022-11-26T02:45:35.187Z,5.86
2022-11-26T02:55:46.104Z,5.71
2022-11-26T03:05:49.614Z,5.65
2022-11-26T03:15:53.654Z,5.59
2022-11-26T03:25:56.348Z,5.60
2022-11-26T03:36:00.390Z,5.46
2022-11-26T03:46:03.089Z,5.40
2022-11-26T03:56:07.970Z,5.38
2022-11-26T04:06:10.811Z,5.28
2022-11-26T04:16:14.968Z,5.28
2022-11-26T04:26:17.874Z,5.21
2022-11-26T04:36:22.063Z,5.19
2022-11-26T04:46:24.765Z,5.11
2022-11-26T04:56:28.838Z,5.05
2022-11-26T05:06:31.535Z,4.93
2022-11-26T05:16:35.651Z,4.83
2022-11-26T05:26:38.399Z,4.82
2022-11-26T05:36:42.386Z,4.87
2022-11-26T05:46:45.050Z,4.90
2022-11-26T05:56:49.079Z,4.94
2022-11-26T06:06:51.840Z,4.80
2022-11-26T06:16:55.887Z,4.75
2022-11-26T06:26:58.723Z,4.72
2022-11-26T06:37:02.750Z,4.73
2022-11-26T06:47:05.594Z,4.71
2022-11-26T06:57:09.615Z,4.69
2022-11-26T07:07:12.328Z,4.76
2022-11-26T07:17:16.331Z,4.83
2022-11-26T07:27:18.986Z,4.83
2022-11-26T07:37:23.123Z,4.97
2022-11-26T07:47:25.941Z,5.15
2022-11-26T07:57:29.938Z,5.37
2022-11-26T08:07:32.649Z,5.51
2022-11-26T08:17:36.668Z,5.72
2022-11-26T08:27:39.334Z,5.93
2022-11-26T08:37:43.322Z,6.15
2022-11-26T08:47:46.053Z,6.34
2022-11-26T08:57:50.062Z,6.63
2022-11-26T09:07:52.745Z,6.91
2022-11-26T09:17:56.884Z,6.98
2022-11-26T09:27:59.534Z,7.12
2022-11-26T09:38:03.666Z,7.54
2022-11-26T09:48:12.335Z,7.55
2022-11-26T09:58:26.586Z,7.79
2022-11-26T10:08:59.112Z,8.15
2022-11-26T10:19:08.791Z,8.19
2022-11-26T10:29:22.823Z,8.28
2022-11-26T10:39:28.570Z,8.27
2022-11-26T10:49:31.962Z,8.50
2022-11-26T10:59:42.091Z,8.60
2022-11-26T11:09:44.884Z,8.62
2022-11-26T11:19:48.906Z,8.60
2022-11-26T11:29:52.800Z,8.68
2022-11-26T11:40:07.036Z,8.72
2022-11-26T11:50:21.658Z,8.52
2022-11-26T12:00:35.349Z,8.61
2022-11-26T12:10:46.295Z,8.66
2022-11-26T12:20:54.022Z,8.74
2022-11-26T12:31:02.339Z,8.86
2022-11-26T12:41:10.720Z,9.08
2022-11-26T12:51:22.598Z,9.15
2022-11-26T13:01:27.581Z,9.31
2022-11-26T13:11:41.822Z,9.24
2022-11-26T13:22:01.676Z,9.18
2022-11-26T13:32:26.911Z,9.30
2022-11-26T13:42:52.719Z,9.36
2022-11-26T13:53:00.567Z,9.38
2022-11-26T14:03:04.990Z,9.34
2022-11-26T14:13:16.037Z,9.57
2022-11-26T14:23:44.618Z,9.32
2022-11-26T14:33:49.238Z,9.27
2022-11-26T14:44:06.365Z,9.25
2022-11-26T14:54:19.160Z,9.11
2022-11-26T15:04:27.937Z,9.11
2022-11-26T15:14:40.875Z,8.94
2022-11-26T15:24:45.154Z,8.88
2022-11-26T15:34:48.033Z,8.81
2022-11-26T15:44:52.036Z,8.76
2022-11-26T15:55:18.244Z,8.80
2022-11-26T16:05:30.397Z,8.83
2022-11-26T16:15:33.224Z,8.83
2022-11-26T16:25:38.228Z,8.83
2022-11-26T16:35:46.270Z,8.74
2022-11-26T16:45:54.214Z,8.78
2022-11-26T16:55:58.132Z,8.83
2022-11-26T17:06:05.048Z,8.92
2022-11-26T17:16:15.128Z,8.92
2022-11-26T17:26:21.592Z,8.92
2022-11-26T17:36:24.486Z,9.02
2022-11-26T17:46:28.644Z,9.10
2022-11-26T17:56:31.779Z,9.07
2022-11-26T18:06:47.955Z,9.08
2022-11-26T18:16:51.319Z,9.08
2022-11-26T18:26:56.808Z,9.11
2022-11-26T18:36:59.439Z,8.97
2022-11-26T18:47:09.129Z,8.83
2022-11-26T18:57:12.095Z,8.79
2022-11-26T19:07:16.315Z,8.52
2022-11-26T19:17:19.066Z,8.39
2022-11-26T19:27:23.289Z,8.26
2022-11-26T19:37:25.914Z,8.14
2022-11-26T19:47:29.951Z,8.03
2022-11-26T19:57:32.678Z,8.02
2022-11-26T20:07:37.051Z,7.92
2022-11-26T20:17:39.860Z,7.86
2022-11-26T20:27:44.235Z,7.71
2022-11-26T20:37:46.906Z,7.74
2022-11-26T20:47:50.908Z,7.92
2022-11-26T20:57:53.907Z,8.05
2022-11-26T21:07:57.904Z,8.12
2022-11-26T21:18:00.717Z,8.30
2022-11-26T21:28:06.567Z,8.28
2022-11-26T21:38:09.613Z,8.32
2022-11-26T21:48:13.785Z,8.35
2022-11-26T21:58:16.523Z,8.37
2022-11-26T22:08:20.556Z,8.29
2022-11-26T22:18:23.318Z,8.27
2022-11-26T22:28:30.195Z,8.27
2022-11-26T22:38:33.716Z,8.31
2022-11-26T22:48:37.874Z,8.37
2022-11-26T22:58:40.515Z,8.22
2022-11-26T23:08:45.889Z,8.41
2022-11-26T23:18:49.044Z,8.11
2022-11-26T23:28:53.159Z,8.11
2022-11-26T23:38:56.370Z,8.17
2022-11-26T23:49:00.359Z,7.96
2022-11-26T23:59:04.958Z,7.86
